sensor_id;sensor_type;location;lat;lon;timestamp;temperature;humidity
73112;HTU21D;61301;51.956;5.876;2022-08-11T00:01:52;26.17;36.11
73112;HTU21D;61301;51.956;5.876;2022-08-11T00:04:22;26.16;36.18
73112;HTU21D;61301;51.956;5.876;2022-08-11T00:06:49;26.13;36.21
73112;HTU21D;61301;51.956;5.876;2022-08-11T00:09:20;26.11;36.05
73112;HTU21D;61301;51.956;5.876;2022-08-11T00:11:51;26.08;36.62
73112;HTU21D;61301;51.956;5.876;2022-08-11T00:14:23;26.03;36.58
73112;HTU21D;61301;51.956;5.876;2022-08-11T00:19:27;25.91;36.83
73112;HTU21D;61301;51.956;5.876;2022-08-11T00:21:55;25.83;36.96
73112;HTU21D;61301;51.956;5.876;2022-08-11T00:24:22;25.81;37.02
73112;HTU21D;61301;51.956;5.876;2022-08-11T00:26:51;25.78;37.08
73112;HTU21D;61301;51.956;5.876;2022-08-11T00:29:18;25.84;37.14
73112;HTU21D;61301;51.956;5.876;2022-08-11T00:31:51;25.81;37.33
73112;HTU21D;61301;51.956;5.876;2022-08-11T00:34:21;25.79;37.40
73112;HTU21D;61301;51.956;5.876;2022-08-11T00:37:09;25.75;37.44
73112;HTU21D;61301;51.956;5.876;2022-08-11T00:39:42;25.65;37.72
73112;HTU21D;61301;51.956;5.876;2022-08-11T00:45:21;25.42;38.54
73112;HTU21D;61301;51.956;5.876;2022-08-11T00:59:14;25.24;38.72
73112;HTU21D;61301;51.956;5.876;2022-08-11T01:13:13;25.01;39.86
73112;HTU21D;61301;51.956;5.876;2022-08-11T01:35:34;25.08;39.30
73112;HTU21D;61301;51.956;5.876;2022-08-11T01:47:09;24.95;39.72
73112;HTU21D;61301;51.956;5.876;2022-08-11T01:50:15;24.98;39.62
73112;HTU21D;61301;51.956;5.876;2022-08-11T01:53:07;24.94;39.50
73112;HTU21D;61301;51.956;5.876;2022-08-11T01:55:56;24.91;39.47
73112;HTU21D;61301;51.956;5.876;2022-08-11T01:58:34;24.85;39.63
73112;HTU21D;61301;51.956;5.876;2022-08-11T02:03:45;24.76;40.03
73112;HTU21D;61301;51.956;5.876;2022-08-11T02:09:22;24.70;40.59
73112;HTU21D;61301;51.956;5.876;2022-08-11T02:11:53;24.58;40.71
73112;HTU21D;61301;51.956;5.876;2022-08-11T02:14:33;24.53;40.68
73112;HTU21D;61301;51.956;5.876;2022-08-11T02:20:06;24.40;41.12
73112;HTU21D;61301;51.956;5.876;2022-08-11T02:23:00;24.35;41.07
73112;HTU21D;61301;51.956;5.876;2022-08-11T02:26:01;24.34;41.14
73112;HTU21D;61301;51.956;5.876;2022-08-11T02:31:21;24.29;41.40
73112;HTU21D;61301;51.956;5.876;2022-08-11T02:37:19;24.21;41.13
73112;HTU21D;61301;51.956;5.876;2022-08-11T02:54:20;24.03;42.12
73112;HTU21D;61301;51.956;5.876;2022-08-11T02:57:01;23.99;42.25
73112;HTU21D;61301;51.956;5.876;2022-08-11T02:59:50;23.98;42.29
73112;HTU21D;61301;51.956;5.876;2022-08-11T03:10:50;23.76;42.90
73112;HTU21D;61301;51.956;5.876;2022-08-11T03:13:57;23.69;43.16
73112;HTU21D;61301;51.956;5.876;2022-08-11T03:17:09;23.65;43.60
73112;HTU21D;61301;51.956;5.876;2022-08-11T03:20:09;23.62;43.23
73112;HTU21D;61301;51.956;5.876;2022-08-11T03:23:07;23.56;43.47
73112;HTU21D;61301;51.956;5.876;2022-08-11T03:26:04;23.54;43.39
73112;HTU21D;61301;51.956;5.876;2022-08-11T03:29:03;23.54;43.22
73112;HTU21D;61301;51.956;5.876;2022-08-11T03:31:36;23.51;43.06
73112;HTU21D;61301;51.956;5.876;2022-08-11T03:34:18;23.55;43.85
73112;HTU21D;61301;51.956;5.876;2022-08-11T03:39:27;23.52;43.58
73112;HTU21D;61301;51.956;5.876;2022-08-11T03:44:58;23.43;43.97
73112;HTU21D;61301;51.956;5.876;2022-08-11T03:47:41;23.39;44.29
73112;HTU21D;61301;51.956;5.876;2022-08-11T03:53:04;23.37;43.84
73112;HTU21D;61301;51.956;5.876;2022-08-11T04:31:08;23.13;44.25
73112;HTU21D;61301;51.956;5.876;2022-08-11T04:34:04;23.10;44.76
73112;HTU21D;61301;51.956;5.876;2022-08-11T04:36:40;23.07;44.86
73112;HTU21D;61301;51.956;5.876;2022-08-11T04:48:44;23.08;44.54
73112;HTU21D;61301;51.956;5.876;2022-08-11T05:10:02;23.17;44.62
73112;HTU21D;61301;51.956;5.876;2022-08-11T05:12:50;23.23;44.45
73112;HTU21D;61301;51.956;5.876;2022-08-11T05:15:44;23.28;44.32
73112;HTU21D;61301;51.956;5.876;2022-08-11T05:18:29;23.32;44.25
73112;HTU21D;61301;51.956;5.876;2022-08-11T05:21:16;23.34;44.26
73112;HTU21D;61301;51.956;5.876;2022-08-11T05:24:18;23.44;44.11
73112;HTU21D;61301;51.956;5.876;2022-08-11T05:27:06;23.41;44.22
73112;HTU21D;61301;51.956;5.876;2022-08-11T05:30:08;23.52;43.96
73112;HTU21D;61301;51.956;5.876;2022-08-11T05:33:06;23.59;43.74
73112;HTU21D;61301;51.956;5.876;2022-08-11T05:39:01;23.68;43.61
73112;HTU21D;61301;51.956;5.876;2022-08-11T05:41:47;23.76;43.42
73112;HTU21D;61301;51.956;5.876;2022-08-11T05:44:34;23.84;43.32
73112;HTU21D;61301;51.956;5.876;2022-08-11T05:47:24;23.91;43.16
73112;HTU21D;61301;51.956;5.876;2022-08-11T05:50:11;24.12;42.65
73112;HTU21D;61301;51.956;5.876;2022-08-11T05:52:57;24.05;42.84
73112;HTU21D;61301;51.956;5.876;2022-08-11T05:55:44;24.06;42.76
73112;HTU21D;61301;51.956;5.876;2022-08-11T05:58:38;24.09;42.67
73112;HTU21D;61301;51.956;5.876;2022-08-11T06:01:04;24.12;42.71
73112;HTU21D;61301;51.956;5.876;2022-08-11T06:03:33;24.20;42.60
73112;HTU21D;61301;51.956;5.876;2022-08-11T06:06:26;24.30;42.38
73112;HTU21D;61301;51.956;5.876;2022-08-11T06:08:58;24.33;42.17
73112;HTU21D;61301;51.956;5.876;2022-08-11T06:11:25;24.38;42.13
73112;HTU21D;61301;51.956;5.876;2022-08-11T06:13:52;24.50;42.03
73112;HTU21D;61301;51.956;5.876;2022-08-11T06:16:26;24.62;41.55
73112;HTU21D;61301;51.956;5.876;2022-08-11T06:18:53;24.65;41.55
73112;HTU21D;61301;51.956;5.876;2022-08-11T06:21:20;24.80;41.39
73112;HTU21D;61301;51.956;5.876;2022-08-11T06:23:47;24.93;41.31
73112;HTU21D;61301;51.956;5.876;2022-08-11T06:26:14;24.94;40.93
73112;HTU21D;61301;51.956;5.876;2022-08-11T06:28:44;24.94;41.08
73112;HTU21D;61301;51.956;5.876;2022-08-11T06:31:19;25.00;40.71
73112;HTU21D;61301;51.956;5.876;2022-08-11T06:34:50;25.01;40.55
73112;HTU21D;61301;51.956;5.876;2022-08-11T06:39:51;25.02;40.97
73112;HTU21D;61301;51.956;5.876;2022-08-11T06:45:00;25.16;40.92
73112;HTU21D;61301;51.956;5.876;2022-08-11T06:47:30;25.28;40.70
73112;HTU21D;61301;51.956;5.876;2022-08-11T06:49:58;25.30;40.91
73112;HTU21D;61301;51.956;5.876;2022-08-11T06:52:45;25.46;40.78
73112;HTU21D;61301;51.956;5.876;2022-08-11T06:55:14;25.57;40.42
73112;HTU21D;61301;51.956;5.876;2022-08-11T06:58:10;25.58;40.23
73112;HTU21D;61301;51.956;5.876;2022-08-11T07:00:57;25.72;40.13
73112;HTU21D;61301;51.956;5.876;2022-08-11T07:03:27;25.86;39.84
73112;HTU21D;61301;51.956;5.876;2022-08-11T07:06:14;25.95;38.58
73112;HTU21D;61301;51.956;5.876;2022-08-11T07:15:02;26.13;38.62
73112;HTU21D;61301;51.956;5.876;2022-08-11T07:17:52;26.23;38.00
73112;HTU21D;61301;51.956;5.876;2022-08-11T07:20:38;26.27;38.05
73112;HTU21D;61301;51.956;5.876;2022-08-11T07:23:24;26.47;38.13
73112;HTU21D;61301;51.956;5.876;2022-08-11T07:26:09;26.57;37.58
73112;HTU21D;61301;51.956;5.876;2022-08-11T07:28:55;26.60;37.54
73112;HTU21D;61301;51.956;5.876;2022-08-11T07:34:18;26.71;36.85
73112;HTU21D;61301;51.956;5.876;2022-08-11T07:36:49;26.82;36.82
73112;HTU21D;61301;51.956;5.876;2022-08-11T07:39:20;26.97;36.61
73112;HTU21D;61301;51.956;5.876;2022-08-11T07:41:48;27.15;36.34
73112;HTU21D;61301;51.956;5.876;2022-08-11T07:44:15;27.26;36.43
73112;HTU21D;61301;51.956;5.876;2022-08-11T07:46:42;27.36;36.24
73112;HTU21D;61301;51.956;5.876;2022-08-11T07:49:30;27.46;36.08
73112;HTU21D;61301;51.956;5.876;2022-08-11T07:52:16;27.71;36.04
73112;HTU21D;61301;51.956;5.876;2022-08-11T07:54:54;27.91;35.38
73112;HTU21D;61301;51.956;5.876;2022-08-11T07:57:21;28.05;35.52
73112;HTU21D;61301;51.956;5.876;2022-08-11T08:00:06;28.20;35.20
73112;HTU21D;61301;51.956;5.876;2022-08-11T08:02:51;28.45;35.11
73112;HTU21D;61301;51.956;5.876;2022-08-11T08:05:37;28.55;33.89
73112;HTU21D;61301;51.956;5.876;2022-08-11T08:08:22;28.65;33.72
73112;HTU21D;61301;51.956;5.876;2022-08-11T08:11:07;28.60;33.48
73112;HTU21D;61301;51.956;5.876;2022-08-11T08:13:52;28.75;33.41
73112;HTU21D;61301;51.956;5.876;2022-08-11T08:16:38;28.85;33.49
73112;HTU21D;61301;51.956;5.876;2022-08-11T08:19:23;28.97;33.31
73112;HTU21D;61301;51.956;5.876;2022-08-11T08:21:50;29.14;33.25
73112;HTU21D;61301;51.956;5.876;2022-08-11T08:24:17;29.27;32.83
73112;HTU21D;61301;51.956;5.876;2022-08-11T08:26:47;29.49;32.64
73112;HTU21D;61301;51.956;5.876;2022-08-11T08:29:27;29.62;32.52
73112;HTU21D;61301;51.956;5.876;2022-08-11T08:32:13;29.85;32.28
73112;HTU21D;61301;51.956;5.876;2022-08-11T08:34:41;30.03;32.25
73112;HTU21D;61301;51.956;5.876;2022-08-11T08:37:07;30.13;31.94
73112;HTU21D;61301;51.956;5.876;2022-08-11T08:39:34;30.34;31.73
73112;HTU21D;61301;51.956;5.876;2022-08-11T08:42:08;30.47;31.18
73112;HTU21D;61301;51.956;5.876;2022-08-11T08:44:38;30.48;31.10
73112;HTU21D;61301;51.956;5.876;2022-08-11T08:47:06;30.62;30.65
73112;HTU21D;61301;51.956;5.876;2022-08-11T08:49:35;30.76;29.96
73112;HTU21D;61301;51.956;5.876;2022-08-11T08:52:05;30.63;30.43
73112;HTU21D;61301;51.956;5.876;2022-08-11T08:54:36;30.82;30.22
73112;HTU21D;61301;51.956;5.876;2022-08-11T08:57:05;31.02;30.25
73112;HTU21D;61301;51.956;5.876;2022-08-11T08:59:39;31.24;29.43
73112;HTU21D;61301;51.956;5.876;2022-08-11T09:02:07;31.36;29.33
73112;HTU21D;61301;51.956;5.876;2022-08-11T09:04:39;31.53;29.54
73112;HTU21D;61301;51.956;5.876;2022-08-11T09:07:08;31.76;29.35
73112;HTU21D;61301;51.956;5.876;2022-08-11T09:09:36;31.80;28.97
73112;HTU21D;61301;51.956;5.876;2022-08-11T09:12:03;32.02;28.86
73112;HTU21D;61301;51.956;5.876;2022-08-11T09:14:41;32.20;27.47
73112;HTU21D;61301;51.956;5.876;2022-08-11T09:17:49;32.37;28.04
73112;HTU21D;61301;51.956;5.876;2022-08-11T09:22:43;32.38;27.21
73112;HTU21D;61301;51.956;5.876;2022-08-11T09:25:31;32.37;27.02
73112;HTU21D;61301;51.956;5.876;2022-08-11T09:28:17;32.64;26.64
73112;HTU21D;61301;51.956;5.876;2022-08-11T09:30:46;32.44;26.92
73112;HTU21D;61301;51.956;5.876;2022-08-11T09:33:15;32.61;25.62
73112;HTU21D;61301;51.956;5.876;2022-08-11T09:35:45;32.59;25.98
73112;HTU21D;61301;51.956;5.876;2022-08-11T09:38:16;32.73;26.40
73112;HTU21D;61301;51.956;5.876;2022-08-11T09:41:03;32.90;25.96
73112;HTU21D;61301;51.956;5.876;2022-08-11T09:43:30;33.17;25.75
73112;HTU21D;61301;51.956;5.876;2022-08-11T09:46:15;33.26;25.65
73112;HTU21D;61301;51.956;5.876;2022-08-11T09:48:44;33.40;25.68
73112;HTU21D;61301;51.956;5.876;2022-08-11T09:51:12;33.53;24.78
73112;HTU21D;61301;51.956;5.876;2022-08-11T09:53:40;33.49;24.60
73112;HTU21D;61301;51.956;5.876;2022-08-11T09:56:25;33.72;24.09
73112;HTU21D;61301;51.956;5.876;2022-08-11T09:59:11;33.88;24.19
73112;HTU21D;61301;51.956;5.876;2022-08-11T10:01:49;34.15;23.69
73112;HTU21D;61301;51.956;5.876;2022-08-11T10:04:25;34.24;23.46
73112;HTU21D;61301;51.956;5.876;2022-08-11T10:06:56;34.34;23.34
73112;HTU21D;61301;51.956;5.876;2022-08-11T10:12:15;34.32;22.68
73112;HTU21D;61301;51.956;5.876;2022-08-11T10:14:45;34.54;22.99
73112;HTU21D;61301;51.956;5.876;2022-08-11T10:17:34;34.69;21.61
73112;HTU21D;61301;51.956;5.876;2022-08-11T10:20:01;34.77;22.11
73112;HTU21D;61301;51.956;5.876;2022-08-11T10:22:29;34.93;21.34
73112;HTU21D;61301;51.956;5.876;2022-08-11T10:25:16;35.10;21.04
73112;HTU21D;61301;51.956;5.876;2022-08-11T10:28:03;35.04;21.17
73112;HTU21D;61301;51.956;5.876;2022-08-11T10:30:30;34.95;21.51
73112;HTU21D;61301;51.956;5.876;2022-08-11T10:33:16;34.88;21.52
73112;HTU21D;61301;51.956;5.876;2022-08-11T10:36:02;34.90;21.69
73112;HTU21D;61301;51.956;5.876;2022-08-11T10:38:30;34.99;21.35
73112;HTU21D;61301;51.956;5.876;2022-08-11T10:40:58;35.04;21.14
73112;HTU21D;61301;51.956;5.876;2022-08-11T10:43:43;35.20;21.21
73112;HTU21D;61301;51.956;5.876;2022-08-11T10:46:10;35.33;20.87
73112;HTU21D;61301;51.956;5.876;2022-08-11T10:48:56;35.40;21.29
73112;HTU21D;61301;51.956;5.876;2022-08-11T10:51:25;35.48;20.65
73112;HTU21D;61301;51.956;5.876;2022-08-11T10:54:10;35.42;20.05
73112;HTU21D;61301;51.956;5.876;2022-08-11T10:56:55;35.31;19.41
73112;HTU21D;61301;51.956;5.876;2022-08-11T10:59:41;35.23;19.30
73112;HTU21D;61301;51.956;5.876;2022-08-11T11:02:13;35.31;19.97
73112;HTU21D;61301;51.956;5.876;2022-08-11T11:05:08;35.55;19.60
73112;HTU21D;61301;51.956;5.876;2022-08-11T11:08:11;35.73;19.41
73112;HTU21D;61301;51.956;5.876;2022-08-11T11:10:58;35.87;19.25
73112;HTU21D;61301;51.956;5.876;2022-08-11T11:13:25;36.03;18.93
73112;HTU21D;61301;51.956;5.876;2022-08-11T11:16:11;36.09;18.34
73112;HTU21D;61301;51.956;5.876;2022-08-11T11:18:59;36.09;18.38
73112;HTU21D;61301;51.956;5.876;2022-08-11T11:21:29;35.97;18.46
73112;HTU21D;61301;51.956;5.876;2022-08-11T11:24:52;36.16;18.51
73112;HTU21D;61301;51.956;5.876;2022-08-11T11:27:21;36.37;17.58
73112;HTU21D;61301;51.956;5.876;2022-08-11T11:30:04;36.31;17.58
73112;HTU21D;61301;51.956;5.876;2022-08-11T11:37:43;36.33;17.72
73112;HTU21D;61301;51.956;5.876;2022-08-11T11:40:15;36.37;17.56
73112;HTU21D;61301;51.956;5.876;2022-08-11T11:42:44;36.45;17.09
73112;HTU21D;61301;51.956;5.876;2022-08-11T11:45:14;36.54;17.53
73112;HTU21D;61301;51.956;5.876;2022-08-11T11:47:41;36.61;17.07
73112;HTU21D;61301;51.956;5.876;2022-08-11T11:50:09;36.68;17.64
73112;HTU21D;61301;51.956;5.876;2022-08-11T11:52:37;36.66;16.82
73112;HTU21D;61301;51.956;5.876;2022-08-11T11:55:04;36.51;16.94
73112;HTU21D;61301;51.956;5.876;2022-08-11T11:57:31;36.56;16.85
73112;HTU21D;61301;51.956;5.876;2022-08-11T12:00:17;36.86;16.64
73112;HTU21D;61301;51.956;5.876;2022-08-11T12:03:07;36.98;15.62
73112;HTU21D;61301;51.956;5.876;2022-08-11T12:05:34;37.15;15.61
73112;HTU21D;61301;51.956;5.876;2022-08-11T12:08:01;37.16;14.45
73112;HTU21D;61301;51.956;5.876;2022-08-11T12:10:52;36.93;15.58
73112;HTU21D;61301;51.956;5.876;2022-08-11T12:13:41;36.93;15.35
73112;HTU21D;61301;51.956;5.876;2022-08-11T12:16:10;36.99;14.57
73112;HTU21D;61301;51.956;5.876;2022-08-11T12:18:39;36.97;14.81
73112;HTU21D;61301;51.956;5.876;2022-08-11T12:21:06;37.19;14.58
73112;HTU21D;61301;51.956;5.876;2022-08-11T12:23:37;37.40;14.86
73112;HTU21D;61301;51.956;5.876;2022-08-11T12:26:30;37.66;14.78
73112;HTU21D;61301;51.956;5.876;2022-08-11T12:29:16;38.01;14.29
73112;HTU21D;61301;51.956;5.876;2022-08-11T12:31:44;38.00;14.43
73112;HTU21D;61301;51.956;5.876;2022-08-11T12:34:13;37.87;15.32
73112;HTU21D;61301;51.956;5.876;2022-08-11T12:36:49;37.84;14.85
73112;HTU21D;61301;51.956;5.876;2022-08-11T12:39:20;37.85;14.93
73112;HTU21D;61301;51.956;5.876;2022-08-11T12:42:09;38.19;14.58
73112;HTU21D;61301;51.956;5.876;2022-08-11T12:44:56;38.10;14.10
73112;HTU21D;61301;51.956;5.876;2022-08-11T12:47:46;38.18;14.52
73112;HTU21D;61301;51.956;5.876;2022-08-11T12:50:33;38.21;14.23
73112;HTU21D;61301;51.956;5.876;2022-08-11T12:53:27;38.39;14.47
73112;HTU21D;61301;51.956;5.876;2022-08-11T12:55:56;38.43;13.70
73112;HTU21D;61301;51.956;5.876;2022-08-11T12:58:44;38.23;13.78
73112;HTU21D;61301;51.956;5.876;2022-08-11T13:01:12;38.15;14.02
73112;HTU21D;61301;51.956;5.876;2022-08-11T13:03:57;38.22;13.61
73112;HTU21D;61301;51.956;5.876;2022-08-11T13:06:42;38.30;13.99
73112;HTU21D;61301;51.956;5.876;2022-08-11T13:09:10;38.50;13.94
73112;HTU21D;61301;51.956;5.876;2022-08-11T13:11:38;38.53;13.62
73112;HTU21D;61301;51.956;5.876;2022-08-11T13:14:26;38.33;14.03
73112;HTU21D;61301;51.956;5.876;2022-08-11T13:16:52;38.24;13.74
73112;HTU21D;61301;51.956;5.876;2022-08-11T13:19:37;38.14;13.52
73112;HTU21D;61301;51.956;5.876;2022-08-11T13:22:06;38.12;13.43
73112;HTU21D;61301;51.956;5.876;2022-08-11T13:24:33;38.14;13.88
73112;HTU21D;61301;51.956;5.876;2022-08-11T13:27:00;38.25;13.62
73112;HTU21D;61301;51.956;5.876;2022-08-11T13:29:28;38.31;13.58
73112;HTU21D;61301;51.956;5.876;2022-08-11T13:31:56;38.18;13.78
73112;HTU21D;61301;51.956;5.876;2022-08-11T13:34:26;38.30;13.78
73112;HTU21D;61301;51.956;5.876;2022-08-11T13:36:57;38.46;13.68
73112;HTU21D;61301;51.956;5.876;2022-08-11T13:39:27;38.56;13.61
73112;HTU21D;61301;51.956;5.876;2022-08-11T13:41:55;38.41;13.75
73112;HTU21D;61301;51.956;5.876;2022-08-11T13:44:23;38.50;13.79
73112;HTU21D;61301;51.956;5.876;2022-08-11T13:46:55;38.18;13.83
73112;HTU21D;61301;51.956;5.876;2022-08-11T13:49:22;37.94;14.23
73112;HTU21D;61301;51.956;5.876;2022-08-11T13:51:49;38.04;14.04
73112;HTU21D;61301;51.956;5.876;2022-08-11T13:54:37;38.08;14.09
73112;HTU21D;61301;51.956;5.876;2022-08-11T13:57:07;38.29;13.85
73112;HTU21D;61301;51.956;5.876;2022-08-11T13:59:34;38.50;13.91
73112;HTU21D;61301;51.956;5.876;2022-08-11T14:02:03;38.75;13.96
73112;HTU21D;61301;51.956;5.876;2022-08-11T14:04:39;39.10;13.50
73112;HTU21D;61301;51.956;5.876;2022-08-11T14:07:09;39.26;13.13
73112;HTU21D;61301;51.956;5.876;2022-08-11T14:09:38;39.42;13.32
73112;HTU21D;61301;51.956;5.876;2022-08-11T14:12:13;39.66;12.92
73112;HTU21D;61301;51.956;5.876;2022-08-11T14:15:02;39.87;12.75
73112;HTU21D;61301;51.956;5.876;2022-08-11T14:17:30;40.11;12.76
73112;HTU21D;61301;51.956;5.876;2022-08-11T14:19:57;40.15;12.49
73112;HTU21D;61301;51.956;5.876;2022-08-11T14:22:26;40.03;12.36
73112;HTU21D;61301;51.956;5.876;2022-08-11T14:24:54;39.81;11.95
73112;HTU21D;61301;51.956;5.876;2022-08-11T14:27:22;39.55;12.42
73112;HTU21D;61301;51.956;5.876;2022-08-11T14:29:51;39.33;12.44
73112;HTU21D;61301;51.956;5.876;2022-08-11T14:32:19;39.28;12.35
73112;HTU21D;61301;51.956;5.876;2022-08-11T14:34:47;39.09;12.30
73112;HTU21D;61301;51.956;5.876;2022-08-11T14:37:24;39.04;12.30
73112;HTU21D;61301;51.956;5.876;2022-08-11T14:39:53;39.07;12.30
73112;HTU21D;61301;51.956;5.876;2022-08-11T14:42:20;38.92;12.35
73112;HTU21D;61301;51.956;5.876;2022-08-11T14:45:09;38.64;12.53
73112;HTU21D;61301;51.956;5.876;2022-08-11T14:47:57;38.45;12.75
73112;HTU21D;61301;51.956;5.876;2022-08-11T14:50:28;38.54;12.83
73112;HTU21D;61301;51.956;5.876;2022-08-11T14:52:59;38.52;12.76
73112;HTU21D;61301;51.956;5.876;2022-08-11T14:55:28;38.36;12.65
73112;HTU21D;61301;51.956;5.876;2022-08-11T14:58:19;38.21;13.13
73112;HTU21D;61301;51.956;5.876;2022-08-11T15:00:46;38.36;13.16
73112;HTU21D;61301;51.956;5.876;2022-08-11T15:03:14;38.43;12.84
73112;HTU21D;61301;51.956;5.876;2022-08-11T15:05:45;38.38;12.87
73112;HTU21D;61301;51.956;5.876;2022-08-11T15:08:13;38.40;13.04
73112;HTU21D;61301;51.956;5.876;2022-08-11T15:10:40;38.43;12.86
73112;HTU21D;61301;51.956;5.876;2022-08-11T15:13:06;38.29;12.95
73112;HTU21D;61301;51.956;5.876;2022-08-11T15:15:34;38.29;13.07
73112;HTU21D;61301;51.956;5.876;2022-08-11T15:18:20;38.25;13.00
73112;HTU21D;61301;51.956;5.876;2022-08-11T15:20:48;38.07;13.07
73112;HTU21D;61301;51.956;5.876;2022-08-11T15:23:34;38.01;12.98
73112;HTU21D;61301;51.956;5.876;2022-08-11T15:26:39;38.05;12.74
73112;HTU21D;61301;51.956;5.876;2022-08-11T15:29:27;37.95;12.81
73112;HTU21D;61301;51.956;5.876;2022-08-11T15:32:13;38.17;12.75
73112;HTU21D;61301;51.956;5.876;2022-08-11T15:34:59;38.25;12.59
73112;HTU21D;61301;51.956;5.876;2022-08-11T15:37:45;38.46;12.53
73112;HTU21D;61301;51.956;5.876;2022-08-11T15:40:27;38.76;12.48
73112;HTU21D;61301;51.956;5.876;2022-08-11T15:43:13;38.92;12.15
73112;HTU21D;61301;51.956;5.876;2022-08-11T15:46:02;38.58;12.58
73112;HTU21D;61301;51.956;5.876;2022-08-11T15:51:04;38.77;12.59
73112;HTU21D;61301;51.956;5.876;2022-08-11T15:53:42;38.67;12.38
73112;HTU21D;61301;51.956;5.876;2022-08-11T15:56:10;38.33;12.66
73112;HTU21D;61301;51.956;5.876;2022-08-11T15:58:42;38.09;13.09
73112;HTU21D;61301;51.956;5.876;2022-08-11T16:01:29;38.19;13.16
73112;HTU21D;61301;51.956;5.876;2022-08-11T16:04:23;38.46;13.35
73112;HTU21D;61301;51.956;5.876;2022-08-11T16:07:09;38.62;12.66
73112;HTU21D;61301;51.956;5.876;2022-08-11T16:09:56;38.33;12.13
73112;HTU21D;61301;51.956;5.876;2022-08-11T16:12:45;38.12;12.22
73112;HTU21D;61301;51.956;5.876;2022-08-11T16:15:54;37.77;12.88
73112;HTU21D;61301;51.956;5.876;2022-08-11T16:19:08;37.85;13.18
73112;HTU21D;61301;51.956;5.876;2022-08-11T16:21:36;37.85;13.00
73112;HTU21D;61301;51.956;5.876;2022-08-11T16:24:07;37.70;13.10
73112;HTU21D;61301;51.956;5.876;2022-08-11T16:26:36;37.75;13.25
73112;HTU21D;61301;51.956;5.876;2022-08-11T16:29:04;37.91;13.23
73112;HTU21D;61301;51.956;5.876;2022-08-11T16:31:34;38.02;13.16
73112;HTU21D;61301;51.956;5.876;2022-08-11T16:34:01;37.90;13.49
73112;HTU21D;61301;51.956;5.876;2022-08-11T16:36:29;37.70;13.33
73112;HTU21D;61301;51.956;5.876;2022-08-11T16:39:14;37.47;13.88
73112;HTU21D;61301;51.956;5.876;2022-08-11T16:41:46;37.42;14.00
73112;HTU21D;61301;51.956;5.876;2022-08-11T16:44:33;37.43;14.01
73112;HTU21D;61301;51.956;5.876;2022-08-11T16:47:18;37.42;13.97
73112;HTU21D;61301;51.956;5.876;2022-08-11T16:49:49;37.35;14.03
73112;HTU21D;61301;51.956;5.876;2022-08-11T16:52:17;37.44;14.00
73112;HTU21D;61301;51.956;5.876;2022-08-11T16:54:43;37.41;14.10
73112;HTU21D;61301;51.956;5.876;2022-08-11T16:57:15;37.37;13.97
73112;HTU21D;61301;51.956;5.876;2022-08-11T17:00:05;37.22;14.22
73112;HTU21D;61301;51.956;5.876;2022-08-11T17:02:36;37.23;14.35
73112;HTU21D;61301;51.956;5.876;2022-08-11T17:05:23;37.07;14.51
73112;HTU21D;61301;51.956;5.876;2022-08-11T17:08:08;37.01;14.48
73112;HTU21D;61301;51.956;5.876;2022-08-11T17:10:57;36.93;14.63
73112;HTU21D;61301;51.956;5.876;2022-08-11T17:13:50;36.91;14.71
73112;HTU21D;61301;51.956;5.876;2022-08-11T17:16:22;37.01;14.95
73112;HTU21D;61301;51.956;5.876;2022-08-11T17:19:00;37.08;14.97
73112;HTU21D;61301;51.956;5.876;2022-08-11T17:21:28;37.00;15.05
73112;HTU21D;61301;51.956;5.876;2022-08-11T17:24:02;36.82;15.08
73112;HTU21D;61301;51.956;5.876;2022-08-11T17:26:36;36.73;15.25
73112;HTU21D;61301;51.956;5.876;2022-08-11T17:29:24;36.77;14.94
73112;HTU21D;61301;51.956;5.876;2022-08-11T17:31:51;36.62;14.92
73112;HTU21D;61301;51.956;5.876;2022-08-11T17:34:39;36.57;14.84
73112;HTU21D;61301;51.956;5.876;2022-08-11T17:37:26;36.55;15.03
73112;HTU21D;61301;51.956;5.876;2022-08-11T17:39:54;36.53;14.87
73112;HTU21D;61301;51.956;5.876;2022-08-11T17:42:22;36.51;14.90
73112;HTU21D;61301;51.956;5.876;2022-08-11T17:45:07;36.54;15.00
73112;HTU21D;61301;51.956;5.876;2022-08-11T17:47:54;36.64;14.98
73112;HTU21D;61301;51.956;5.876;2022-08-11T17:50:40;36.75;14.74
73112;HTU21D;61301;51.956;5.876;2022-08-11T17:53:06;36.71;14.41
73112;HTU21D;61301;51.956;5.876;2022-08-11T17:55:51;36.67;14.34
73112;HTU21D;61301;51.956;5.876;2022-08-11T17:58:38;36.55;14.53
73112;HTU21D;61301;51.956;5.876;2022-08-11T18:01:24;36.40;14.44
73112;HTU21D;61301;51.956;5.876;2022-08-11T18:03:53;36.26;14.50
73112;HTU21D;61301;51.956;5.876;2022-08-11T18:06:21;36.31;14.62
73112;HTU21D;61301;51.956;5.876;2022-08-11T18:08:49;36.55;14.41
73112;HTU21D;61301;51.956;5.876;2022-08-11T18:11:34;37.01;14.10
73112;HTU21D;61301;51.956;5.876;2022-08-11T18:14:21;37.35;13.77
73112;HTU21D;61301;51.956;5.876;2022-08-11T18:17:07;37.80;13.52
73112;HTU21D;61301;51.956;5.876;2022-08-11T18:19:52;38.21;13.26
73112;HTU21D;61301;51.956;5.876;2022-08-11T18:22:40;38.51;13.18
73112;HTU21D;61301;51.956;5.876;2022-08-11T18:25:36;38.63;12.96
73112;HTU21D;61301;51.956;5.876;2022-08-11T18:28:26;38.45;13.13
73112;HTU21D;61301;51.956;5.876;2022-08-11T18:31:14;38.11;13.41
73112;HTU21D;61301;51.956;5.876;2022-08-11T18:34:05;37.28;14.21
73112;HTU21D;61301;51.956;5.876;2022-08-11T18:37:06;36.67;14.90
73112;HTU21D;61301;51.956;5.876;2022-08-11T18:39:57;36.13;15.45
73112;HTU21D;61301;51.956;5.876;2022-08-11T18:42:45;35.75;15.90
73112;HTU21D;61301;51.956;5.876;2022-08-11T18:45:30;35.44;16.25
73112;HTU21D;61301;51.956;5.876;2022-08-11T18:48:19;35.20;16.45
73112;HTU21D;61301;51.956;5.876;2022-08-11T18:51:06;34.95;16.73
73112;HTU21D;61301;51.956;5.876;2022-08-11T18:53:56;34.82;16.99
73112;HTU21D;61301;51.956;5.876;2022-08-11T18:56:43;34.66;17.19
73112;HTU21D;61301;51.956;5.876;2022-08-11T18:59:31;34.50;17.28
73112;HTU21D;61301;51.956;5.876;2022-08-11T19:02:16;34.38;17.45
73112;HTU21D;61301;51.956;5.876;2022-08-11T19:05:02;34.27;17.75
73112;HTU21D;61301;51.956;5.876;2022-08-11T19:07:47;34.16;17.77
73112;HTU21D;61301;51.956;5.876;2022-08-11T19:10:34;34.05;17.90
73112;HTU21D;61301;51.956;5.876;2022-08-11T19:13:20;33.91;18.03
73112;HTU21D;61301;51.956;5.876;2022-08-11T19:16:07;33.83;18.11
73112;HTU21D;61301;51.956;5.876;2022-08-11T19:18:53;33.71;18.28
73112;HTU21D;61301;51.956;5.876;2022-08-11T19:21:39;33.63;18.42
73112;HTU21D;61301;51.956;5.876;2022-08-11T19:24:25;33.53;18.51
73112;HTU21D;61301;51.956;5.876;2022-08-11T19:27:11;33.49;18.54
73112;HTU21D;61301;51.956;5.876;2022-08-11T19:29:57;33.45;18.71
73112;HTU21D;61301;51.956;5.876;2022-08-11T19:32:43;33.30;18.97
73112;HTU21D;61301;51.956;5.876;2022-08-11T19:35:28;33.18;19.05
73112;HTU21D;61301;51.956;5.876;2022-08-11T19:38:14;33.08;19.14
73112;HTU21D;61301;51.956;5.876;2022-08-11T19:40:59;32.99;19.28
73112;HTU21D;61301;51.956;5.876;2022-08-11T19:43:45;32.91;19.48